createdAt,value
2023-01-29T00:01:51.926Z,20.80
2023-01-29T00:04:18.955Z,21.70
2023-01-29T00:06:45.308Z,20.30
2023-01-29T00:09:12.986Z,17.17
2023-01-29T00:11:39.720Z,19.80
2023-01-29T00:14:06.863Z,18.43
2023-01-29T00:16:33.367Z,20.07
2023-01-29T00:19:02.074Z,23.30
2023-01-29T00:21:30.986Z,19.87
2023-01-29T00:23:58.565Z,17.40
2023-01-29T00:26:25.609Z,19.00
2023-01-29T00:28:52.149Z,20.40
2023-01-29T00:31:24.336Z,17.70
2023-01-29T00:33:51.257Z,19.93
2023-01-29T00:36:19.473Z,17.77
2023-01-29T00:38:54.732Z,20.40
2023-01-29T00:41:40.245Z,20.73
2023-01-29T00:44:25.972Z,20.37
2023-01-29T00:46:52.454Z,27.87
2023-01-29T00:49:18.832Z,19.60
2023-01-29T00:52:05.132Z,17.13
2023-01-29T00:54:33.140Z,22.73
2023-01-29T00:56:59.680Z,23.73
2023-01-29T00:59:26.171Z,22.80
2023-01-29T01:02:10.921Z,22.77
2023-01-29T01:04:37.451Z,20.57
2023-01-29T01:07:03.862Z,20.30
2023-01-29T01:09:48.773Z,18.13
2023-01-29T01:12:15.125Z,16.73
2023-01-29T01:14:43.325Z,21.63
2023-01-29T01:17:09.800Z,23.40
2023-01-29T01:19:36.181Z,17.27
2023-01-29T01:22:04.906Z,16.70
2023-01-29T01:24:32.211Z,20.93
2023-01-29T01:26:58.733Z,18.93
2023-01-29T01:29:25.123Z,20.93
2023-01-29T01:31:53.453Z,17.47
2023-01-29T01:34:20.573Z,20.53
2023-01-29T01:36:46.922Z,20.60
2023-01-29T01:39:13.746Z,18.97
2023-01-29T01:41:40.078Z,21.30
2023-01-29T01:44:06.580Z,15.93
2023-01-29T01:46:37.694Z,27.17
2023-01-29T01:49:15.819Z,22.13
2023-01-29T01:51:48.427Z,19.60
2023-01-29T01:54:25.002Z,21.40
2023-01-29T01:57:09.128Z,21.60
2023-01-29T01:59:40.969Z,18.40
2023-01-29T02:02:26.326Z,18.50
2023-01-29T02:05:11.864Z,16.47
2023-01-29T02:08:02.590Z,19.50
2023-01-29T02:10:32.605Z,23.80
2023-01-29T02:12:58.933Z,18.17
2023-01-29T02:15:25.296Z,21.10
2023-01-29T02:17:52.756Z,16.40
2023-01-29T02:20:26.146Z,23.53
2023-01-29T02:23:03.746Z,20.63
2023-01-29T02:26:15.620Z,15.53
2023-01-29T02:28:53.617Z,16.13
2023-01-29T02:31:33.605Z,15.37
2023-01-29T02:34:22.292Z,17.70
2023-01-29T02:37:02.937Z,18.40
2023-01-29T02:39:36.399Z,24.23
2023-01-29T02:42:06.055Z,17.87
2023-01-29T02:44:47.633Z,18.70
2023-01-29T02:47:22.316Z,14.63
2023-01-29T02:50:00.812Z,16.40
2023-01-29T02:52:35.605Z,18.17
2023-01-29T02:55:11.216Z,18.77
2023-01-29T02:57:41.900Z,19.40
2023-01-29T03:00:17.040Z,14.90
2023-01-29T03:02:53.440Z,16.90
2023-01-29T03:05:28.868Z,16.10
2023-01-29T03:08:02.063Z,20.50
2023-01-29T03:10:47.331Z,16.73
2023-01-29T03:13:39.425Z,19.60
2023-01-29T03:16:24.334Z,14.93
2023-01-29T03:19:00.260Z,18.27
2023-01-29T03:21:55.081Z,16.77
2023-01-29T03:24:45.056Z,20.50
2023-01-29T03:27:33.985Z,21.90
2023-01-29T03:30:20.360Z,18.73
2023-01-29T03:32:51.904Z,18.23
2023-01-29T03:35:33.532Z,19.00
2023-01-29T03:38:00.864Z,21.00
2023-01-29T03:40:33.581Z,24.90
2023-01-29T03:43:11.344Z,18.40
2023-01-29T03:45:45.963Z,17.47
2023-01-29T03:48:33.835Z,22.83
2023-01-29T03:51:15.592Z,17.87
2023-01-29T03:54:04.174Z,19.80
2023-01-29T03:57:31.248Z,22.67
2023-01-29T04:00:08.158Z,18.60
2023-01-29T04:02:55.433Z,25.27
2023-01-29T04:05:27.420Z,20.20
2023-01-29T04:08:02.469Z,26.53
2023-01-29T04:10:29.821Z,20.20
2023-01-29T04:13:04.273Z,18.90
2023-01-29T04:15:36.633Z,25.43
2023-01-29T04:18:03.143Z,18.00
2023-01-29T04:20:29.958Z,19.20
2023-01-29T04:22:56.370Z,25.50
2023-01-29T04:25:29.010Z,21.43
2023-01-29T04:28:12.400Z,21.70
2023-01-29T04:30:59.923Z,21.00
2023-01-29T04:33:40.347Z,22.27
2023-01-29T04:36:28.423Z,16.50
2023-01-29T04:39:17.971Z,18.97
2023-01-29T04:42:05.508Z,20.57
2023-01-29T04:44:57.207Z,17.43
2023-01-29T04:48:17.773Z,23.47
2023-01-29T04:50:54.157Z,21.97
2023-01-29T04:53:41.125Z,18.60
2023-01-29T04:56:33.192Z,19.30
2023-01-29T04:59:05.994Z,22.17
2023-01-29T05:01:34.237Z,18.10
2023-01-29T05:04:04.532Z,18.60
2023-01-29T05:06:32.447Z,32.03
2023-01-29T05:09:00.745Z,18.57
2023-01-29T05:11:27.249Z,21.07
2023-01-29T05:13:54.491Z,16.53
2023-01-29T05:16:26.558Z,18.43
2023-01-29T05:18:53.684Z,18.83
2023-01-29T05:21:23.037Z,17.10
2023-01-29T05:24:11.402Z,16.97
2023-01-29T05:26:56.476Z,20.67
2023-01-29T05:29:22.960Z,18.40
2023-01-29T05:31:49.363Z,22.00
2023-01-29T05:34:15.797Z,19.00
2023-01-29T05:36:42.285Z,19.57
2023-01-29T05:39:08.608Z,20.20
2023-01-29T05:41:35.117Z,20.63
2023-01-29T05:44:01.499Z,22.83
2023-01-29T05:46:27.978Z,20.23
2023-01-29T05:48:54.544Z,24.77
2023-01-29T05:51:21.116Z,25.83
2023-01-29T05:53:47.455Z,23.50
2023-01-29T05:56:13.927Z,23.10
2023-01-29T05:58:40.409Z,18.77
2023-01-29T06:01:14.825Z,19.73
2023-01-29T06:03:41.650Z,22.20
2023-01-29T06:06:08.403Z,20.17
2023-01-29T06:08:34.823Z,17.10
2023-01-29T06:11:01.216Z,19.07
2023-01-29T06:13:27.571Z,18.50
2023-01-29T06:15:54.109Z,19.80
2023-01-29T06:18:20.487Z,17.70
2023-01-29T06:20:46.989Z,24.23
2023-01-29T06:23:13.374Z,18.83
2023-01-29T06:25:39.849Z,25.43
2023-01-29T06:28:06.177Z,17.63
2023-01-29T06:30:32.597Z,21.87
2023-01-29T06:33:01.554Z,17.17
2023-01-29T06:35:28.474Z,22.33
2023-01-29T06:37:56.164Z,20.67
2023-01-29T06:40:22.539Z,23.03
2023-01-29T06:42:48.862Z,20.30
2023-01-29T06:45:15.428Z,22.03
2023-01-29T06:47:41.765Z,24.07
2023-01-29T06:50:08.695Z,18.67
2023-01-29T06:52:35.020Z,19.70
2023-01-29T06:55:01.583Z,22.07
2023-01-29T06:57:29.130Z,21.43
2023-01-29T06:59:55.512Z,20.63
2023-01-29T07:02:21.907Z,25.30
2023-01-29T07:04:48.400Z,18.57
2023-01-29T07:07:14.731Z,22.80
2023-01-29T07:09:42.097Z,20.17
2023-01-29T07:12:09.974Z,20.10
2023-01-29T07:14:36.680Z,19.87
2023-01-29T07:17:03.173Z,19.97
2023-01-29T07:19:29.590Z,20.23
2023-01-29T07:21:55.965Z,24.20
2023-01-29T07:24:22.486Z,19.67
2023-01-29T07:26:48.954Z,19.03
2023-01-29T07:29:15.441Z,21.20
2023-01-29T07:31:41.840Z,20.10
2023-01-29T07:34:08.458Z,23.97
2023-01-29T07:36:34.822Z,22.30
2023-01-29T07:39:01.213Z,21.37
2023-01-29T07:41:27.529Z,23.17
2023-01-29T07:43:54.012Z,24.30
2023-01-29T07:46:20.333Z,23.80
2023-01-29T07:48:46.701Z,20.13
2023-01-29T07:51:13.098Z,21.30
2023-01-29T07:53:39.618Z,21.53
2023-01-29T07:56:06.058Z,23.10
2023-01-29T07:58:33.891Z,25.83
2023-01-29T08:01:05.450Z,26.67
2023-01-29T08:03:32.051Z,23.33
2023-01-29T08:05:58.390Z,24.53
2023-01-29T08:08:25.765Z,28.23
2023-01-29T08:10:52.091Z,27.30
2023-01-29T08:13:18.460Z,25.17
2023-01-29T08:15:45.715Z,25.83
2023-01-29T08:18:13.430Z,28.40
2023-01-29T08:20:40.062Z,31.90
2023-01-29T08:23:13.127Z,24.63
2023-01-29T08:25:39.583Z,34.77
2023-01-29T08:28:06.107Z,33.73
2023-01-29T08:30:34.306Z,34.80
2023-01-29T08:33:01.332Z,32.77
2023-01-29T08:35:27.671Z,39.13
2023-01-29T08:37:59.731Z,50.10
2023-01-29T08:40:27.320Z,46.20
2023-01-29T08:43:01.976Z,38.57
2023-01-29T08:45:30.041Z,35.03
2023-01-29T08:47:56.462Z,35.80
2023-01-29T08:50:22.784Z,35.83
2023-01-29T08:52:49.155Z,32.73
2023-01-29T08:55:15.743Z,43.13
2023-01-29T08:57:42.320Z,39.70
2023-01-29T09:00:10.613Z,39.73
2023-01-29T09:02:38.014Z,37.57
2023-01-29T09:05:05.545Z,44.10
2023-01-29T09:07:32.497Z,42.70
2023-01-29T09:09:58.929Z,41.47
2023-01-29T09:12:25.745Z,38.67
2023-01-29T09:14:52.117Z,39.07
2023-01-29T09:17:18.621Z,39.47
2023-01-29T09:19:45.022Z,43.80
2023-01-29T09:22:11.990Z,37.33
2023-01-29T09:24:38.579Z,42.60
2023-01-29T09:27:06.047Z,45.03
2023-01-29T09:29:35.435Z,38.50
2023-01-29T09:32:03.313Z,41.43
2023-01-29T09:34:29.699Z,39.50
2023-01-29T09:36:56.040Z,41.17
2023-01-29T09:39:22.400Z,52.07
2023-01-29T09:42:27.393Z,40.80
2023-01-29T09:45:13.115Z,41.30
2023-01-29T09:47:39.768Z,45.47
2023-01-29T09:50:19.999Z,53.27
2023-01-29T09:52:53.128Z,41.10
2023-01-29T09:55:27.284Z,45.70
2023-01-29T09:57:57.424Z,46.60
2023-01-29T10:00:35.273Z,43.40
2023-01-29T10:03:09.596Z,43.57
2023-01-29T10:05:57.583Z,46.47
2023-01-29T10:08:48.783Z,41.87
2023-01-29T10:11:27.319Z,41.47
2023-01-29T10:14:13.581Z,42.73
2023-01-29T10:16:59.123Z,44.07
2023-01-29T10:19:42.821Z,43.00
2023-01-29T10:22:35.917Z,46.67
2023-01-29T10:25:22.855Z,51.37
2023-01-29T10:27:53.509Z,46.33
2023-01-29T10:30:25.747Z,49.13
2023-01-29T10:32:53.360Z,50.90
2023-01-29T10:35:32.197Z,47.80
2023-01-29T10:38:12.301Z,46.53
2023-01-29T10:40:46.857Z,44.57
2023-01-29T10:43:23.589Z,53.33
2023-01-29T10:46:08.332Z,53.47
2023-01-29T10:48:46.916Z,50.00
2023-01-29T10:51:42.004Z,49.77
2023-01-29T10:54:20.426Z,47.40
2023-01-29T10:57:16.058Z,51.10
2023-01-29T11:00:19.231Z,41.93
2023-01-29T11:02:48.516Z,49.77
2023-01-29T11:05:38.612Z,54.73
2023-01-29T11:08:19.674Z,49.70
2023-01-29T11:11:01.922Z,49.43
2023-01-29T11:13:34.728Z,49.13
2023-01-29T11:16:01.055Z,47.33
2023-01-29T11:18:47.533Z,46.23
2023-01-29T11:21:14.606Z,47.00
2023-01-29T11:23:41.021Z,42.17
2023-01-29T11:26:11.287Z,44.50
2023-01-29T11:28:46.004Z,43.70
2023-01-29T11:31:26.013Z,47.40
2023-01-29T11:34:02.183Z,42.50
2023-01-29T11:36:37.169Z,43.30
2023-01-29T11:39:18.435Z,43.20
2023-01-29T11:41:47.116Z,39.07
2023-01-29T11:44:27.870Z,42.97
2023-01-29T11:46:55.023Z,40.80
2023-01-29T11:49:52.453Z,45.57
2023-01-29T11:52:22.371Z,38.30
2023-01-29T11:55:02.216Z,36.07
2023-01-29T11:57:30.955Z,43.83
2023-01-29T12:00:29.818Z,40.20
2023-01-29T12:03:02.064Z,41.30
2023-01-29T12:05:28.715Z,34.77
2023-01-29T12:07:59.822Z,36.43
2023-01-29T12:10:41.406Z,32.87
2023-01-29T12:13:10.790Z,33.70
2023-01-29T12:15:38.811Z,32.63
2023-01-29T12:18:17.488Z,40.07
2023-01-29T12:20:55.094Z,32.97
2023-01-29T12:23:36.837Z,43.70
2023-01-29T12:26:15.749Z,31.87
2023-01-29T12:28:52.064Z,30.77
2023-01-29T12:31:36.751Z,35.00
2023-01-29T12:34:21.977Z,36.57
2023-01-29T12:36:53.593Z,32.57
2023-01-29T12:39:20.783Z,33.93
2023-01-29T12:41:54.635Z,34.43
2023-01-29T12:44:30.238Z,34.53
2023-01-29T12:47:00.837Z,31.50
2023-01-29T12:49:34.504Z,34.60
2023-01-29T12:52:09.443Z,36.70
2023-01-29T12:54:43.572Z,33.43
2023-01-29T12:57:25.981Z,30.93
2023-01-29T13:00:02.572Z,36.63
2023-01-29T13:02:37.768Z,32.23
2023-01-29T13:05:48.739Z,30.33
2023-01-29T13:08:30.533Z,34.77
2023-01-29T13:11:01.510Z,32.93
2023-01-29T13:13:44.453Z,32.40
2023-01-29T13:16:13.723Z,29.53
2023-01-29T13:18:45.134Z,30.87
2023-01-29T13:21:25.299Z,36.90
2023-01-29T13:23:55.577Z,32.53
2023-01-29T13:26:23.187Z,34.27
2023-01-29T13:28:51.130Z,37.27
2023-01-29T13:31:37.670Z,33.67
2023-01-29T13:34:03.984Z,33.97
2023-01-29T13:36:31.757Z,41.40
2023-01-29T13:39:05.216Z,33.33
2023-01-29T13:41:34.456Z,31.93
2023-01-29T13:44:01.073Z,34.53
2023-01-29T13:46:28.383Z,32.47
2023-01-29T13:48:58.107Z,34.30
2023-01-29T13:51:32.091Z,34.37
2023-01-29T13:54:07.516Z,35.10
2023-01-29T13:56:33.840Z,36.47
2023-01-29T13:59:01.139Z,36.03
2023-01-29T14:01:49.406Z,34.27
2023-01-29T14:04:18.740Z,35.17
2023-01-29T14:06:48.740Z,39.20
2023-01-29T14:09:53.881Z,37.43
2023-01-29T14:12:22.945Z,28.70
2023-01-29T14:14:49.298Z,32.60
2023-01-29T14:17:17.446Z,39.07
2023-01-29T14:19:49.734Z,35.37
2023-01-29T14:22:22.851Z,36.50
2023-01-29T14:24:55.532Z,35.63
2023-01-29T14:27:25.547Z,36.07
2023-01-29T14:29:59.141Z,31.60
2023-01-29T14:32:26.152Z,36.10
2023-01-29T14:35:03.768Z,36.10
2023-01-29T14:37:36.445Z,37.50
2023-01-29T14:40:12.084Z,34.13
2023-01-29T14:43:04.581Z,35.50
2023-01-29T14:45:33.056Z,35.30
2023-01-29T14:48:37.555Z,38.37
2023-01-29T14:51:20.325Z,34.77
2023-01-29T14:54:04.639Z,42.07
2023-01-29T14:56:35.368Z,40.47
2023-01-29T14:59:16.584Z,38.23
2023-01-29T15:01:54.930Z,34.33
2023-01-29T15:04:33.473Z,46.97
2023-01-29T15:07:05.768Z,37.60
2023-01-29T15:09:42.480Z,37.37
2023-01-29T15:12:20.915Z,38.47
2023-01-29T15:15:01.876Z,36.63
2023-01-29T15:17:33.023Z,42.77
2023-01-29T15:19:59.486Z,40.77
2023-01-29T15:22:26.181Z,40.10
2023-01-29T15:25:07.842Z,45.27
2023-01-29T15:27:34.630Z,37.80
2023-01-29T15:30:04.505Z,40.17
2023-01-29T15:32:39.627Z,44.63
2023-01-29T15:35:18.048Z,38.43
2023-01-29T15:38:05.652Z,36.30
2023-01-29T15:40:32.622Z,36.30
2023-01-29T15:42:59.116Z,39.13
2023-01-29T15:45:33.335Z,38.03
2023-01-29T15:48:13.668Z,36.53
2023-01-29T15:50:42.230Z,41.00
2023-01-29T15:53:17.238Z,41.57
2023-01-29T15:55:44.569Z,36.50
2023-01-29T15:58:24.109Z,37.93
2023-01-29T16:00:55.771Z,44.43
2023-01-29T16:03:24.686Z,39.80
2023-01-29T16:05:52.678Z,40.63
2023-01-29T16:08:21.931Z,41.30
2023-01-29T16:10:52.607Z,44.23
2023-01-29T16:13:23.431Z,36.57
2023-01-29T16:16:01.236Z,46.33
2023-01-29T16:18:37.446Z,48.60
2023-01-29T16:21:12.692Z,43.30
2023-01-29T16:23:45.754Z,49.77
2023-01-29T16:26:17.234Z,41.73
2023-01-29T16:28:45.268Z,37.30
2023-01-29T16:31:14.001Z,47.13
2023-01-29T16:33:43.334Z,42.30
2023-01-29T16:36:21.533Z,47.13
2023-01-29T16:38:55.336Z,36.80
2023-01-29T16:41:21.628Z,44.30
2023-01-29T16:43:51.465Z,44.57
2023-01-29T16:46:24.122Z,40.67
2023-01-29T16:48:50.944Z,42.70
2023-01-29T16:51:28.370Z,40.37
2023-01-29T16:54:00.080Z,50.27
2023-01-29T16:56:30.258Z,48.57
2023-01-29T16:58:57.338Z,40.80
2023-01-29T17:01:26.813Z,43.23
2023-01-29T17:04:21.064Z,41.90
2023-01-29T17:06:56.189Z,38.93
2023-01-29T17:09:35.093Z,33.80
2023-01-29T17:12:20.149Z,35.37
2023-01-29T17:14:55.656Z,36.60
2023-01-29T17:17:28.492Z,39.20
2023-01-29T17:19:54.831Z,35.13
2023-01-29T17:22:21.200Z,38.43
2023-01-29T17:24:51.305Z,39.27
2023-01-29T17:27:22.736Z,37.50
2023-01-29T17:29:49.316Z,41.23
2023-01-29T17:32:18.744Z,42.20
2023-01-29T17:34:46.701Z,43.10
2023-01-29T17:37:15.195Z,43.50
2023-01-29T17:39:43.082Z,39.40
2023-01-29T17:42:15.171Z,47.10
2023-01-29T17:44:42.856Z,42.00
2023-01-29T17:47:14.867Z,40.10
2023-01-29T17:49:41.946Z,38.90
2023-01-29T17:52:08.755Z,43.30
2023-01-29T17:54:35.145Z,45.97
2023-01-29T17:57:01.762Z,43.37
2023-01-29T17:59:31.287Z,37.87
2023-01-29T18:01:57.980Z,40.60
2023-01-29T18:04:24.429Z,41.93
2023-01-29T18:06:51.908Z,43.23
2023-01-29T18:09:21.706Z,30.90
2023-01-29T18:11:49.426Z,40.00
2023-01-29T18:14:16.423Z,36.03
2023-01-29T18:16:44.641Z,38.57
2023-01-29T18:19:22.065Z,33.70
2023-01-29T18:21:49.549Z,41.77
2023-01-29T18:24:16.483Z,37.10
2023-01-29T18:26:42.964Z,41.50
2023-01-29T18:29:09.521Z,39.77
2023-01-29T18:31:35.903Z,44.73
2023-01-29T18:34:02.390Z,39.60
2023-01-29T18:36:28.849Z,35.43
2023-01-29T18:38:56.790Z,42.53
2023-01-29T18:41:23.149Z,43.30
2023-01-29T18:43:51.690Z,40.13
2023-01-29T18:46:18.854Z,53.77
2023-01-29T18:48:45.449Z,49.50
2023-01-29T18:51:11.802Z,45.10
2023-01-29T18:53:38.195Z,47.70
2023-01-29T18:56:07.396Z,42.40
2023-01-29T18:58:38.390Z,50.50
2023-01-29T19:01:09.380Z,48.87
2023-01-29T19:03:36.584Z,51.70
2023-01-29T19:06:06.040Z,51.80
2023-01-29T19:08:32.632Z,52.70
2023-01-29T19:11:02.295Z,52.97
2023-01-29T19:13:32.864Z,58.87
2023-01-29T19:15:59.202Z,47.83
2023-01-29T19:18:26.659Z,60.63
2023-01-29T19:20:53.551Z,58.10
2023-01-29T19:23:21.203Z,53.47
2023-01-29T19:25:47.805Z,54.07
2023-01-29T19:28:14.578Z,66.37
2023-01-29T19:30:40.971Z,56.50
2023-01-29T19:33:07.363Z,59.17
2023-01-29T19:35:33.972Z,53.13
2023-01-29T19:38:01.020Z,59.83
2023-01-29T19:40:27.394Z,67.03
2023-01-29T19:42:55.697Z,58.73
2023-01-29T19:45:49.407Z,54.17
2023-01-29T19:48:14.406Z,68.83
2023-01-29T19:50:40.768Z,56.13
2023-01-29T19:53:07.137Z,65.40
2023-01-29T19:55:33.489Z,66.57
2023-01-29T19:57:59.895Z,64.93
2023-01-29T20:00:26.370Z,70.20
2023-01-29T20:02:52.809Z,64.93
2023-01-29T20:05:20.337Z,63.67
2023-01-29T20:07:46.909Z,54.20
2023-01-29T20:10:17.359Z,58.43
2023-01-29T20:12:44.965Z,61.90
2023-01-29T20:15:12.593Z,51.17
2023-01-29T20:17:39.244Z,67.93
2023-01-29T20:20:06.717Z,69.33
2023-01-29T20:22:33.105Z,60.03
2023-01-29T20:24:59.456Z,58.87
2023-01-29T20:27:26.041Z,67.77
2023-01-29T20:29:52.630Z,63.57
2023-01-29T20:32:19.131Z,59.20
2023-01-29T20:34:49.480Z,63.63
2023-01-29T20:37:15.889Z,68.73
2023-01-29T20:39:42.234Z,69.67
2023-01-29T20:42:08.604Z,64.20
2023-01-29T20:44:34.923Z,69.13
2023-01-29T20:47:02.613Z,58.50
2023-01-29T20:49:29.023Z,61.40
2023-01-29T20:51:55.580Z,70.37
2023-01-29T20:54:22.084Z,63.87
2023-01-29T20:56:48.916Z,79.20
2023-01-29T20:59:15.497Z,66.97
2023-01-29T21:01:43.070Z,70.87
2023-01-29T21:04:09.413Z,55.90
2023-01-29T21:06:35.794Z,61.87
2023-01-29T21:09:02.169Z,68.33
2023-01-29T21:11:28.655Z,54.87
2023-01-29T21:13:57.612Z,54.63
2023-01-29T21:16:26.351Z,55.00
2023-01-29T21:18:56.972Z,65.77
2023-01-29T21:21:23.535Z,62.30
2023-01-29T21:23:49.871Z,73.33
2023-01-29T21:26:16.314Z,57.60
2023-01-29T21:28:42.672Z,56.53
2023-01-29T21:31:14.323Z,58.97
2023-01-29T21:33:40.688Z,60.97
2023-01-29T21:36:08.357Z,58.80
2023-01-29T21:38:34.708Z,61.43
2023-01-29T21:41:03.401Z,69.70
2023-01-29T21:43:29.963Z,54.50
2023-01-29T21:46:03.788Z,52.47
2023-01-29T21:48:30.886Z,59.53
2023-01-29T21:50:57.301Z,50.70
2023-01-29T21:53:23.643Z,57.87
2023-01-29T21:55:50.181Z,53.90
2023-01-29T21:58:16.516Z,55.93
2023-01-29T22:00:42.935Z,61.60
2023-01-29T22:03:09.294Z,53.03
2023-01-29T22:05:35.692Z,58.03
2023-01-29T22:08:02.407Z,54.93
2023-01-29T22:10:30.534Z,51.50
2023-01-29T22:12:59.085Z,55.00
2023-01-29T22:15:25.457Z,59.73
2023-01-29T22:17:51.785Z,54.03
2023-01-29T22:20:19.076Z,57.83
2023-01-29T22:22:45.646Z,61.37
2023-01-29T22:25:12.065Z,55.70
2023-01-29T22:27:38.663Z,53.03
2023-01-29T22:30:06.177Z,63.10
2023-01-29T22:32:33.131Z,61.00
2023-01-29T22:34:59.585Z,56.87
2023-01-29T22:37:25.983Z,60.67
2023-01-29T22:39:52.364Z,54.37
2023-01-29T22:42:20.393Z,49.27
2023-01-29T22:44:48.027Z,60.90
2023-01-29T22:47:14.403Z,61.10
2023-01-29T22:49:40.792Z,57.03
2023-01-29T22:52:10.053Z,50.17
2023-01-29T22:54:40.863Z,52.20
2023-01-29T22:57:13.480Z,54.90
2023-01-29T22:59:40.360Z,55.50
2023-01-29T23:02:07.836Z,58.13
2023-01-29T23:04:34.184Z,53.27
2023-01-29T23:07:00.672Z,53.30
2023-01-29T23:09:27.154Z,44.07
2023-01-29T23:11:53.549Z,48.57
2023-01-29T23:14:20.032Z,46.23
2023-01-29T23:16:46.408Z,52.07
2023-01-29T23:19:12.792Z,53.03
2023-01-29T23:21:39.804Z,53.33
2023-01-29T23:24:07.873Z,58.87
2023-01-29T23:26:53.036Z,41.60
2023-01-29T23:29:19.647Z,57.57
2023-01-29T23:31:46.119Z,50.17
2023-01-29T23:34:13.576Z,43.90
2023-01-29T23:36:39.976Z,47.63
2023-01-29T23:39:06.703Z,47.90
2023-01-29T23:41:33.464Z,51.90
2023-01-29T23:43:59.794Z,43.33
2023-01-29T23:46:26.223Z,48.57
2023-01-29T23:48:52.602Z,48.67
2023-01-29T23:51:19.130Z,46.00
2023-01-29T23:53:45.478Z,46.43
2023-01-29T23:56:11.861Z,47.73
2023-01-29T23:58:38.245Z,56.60
